LIPE/BLQ METAR and TAF weather

Enter ICAO airport designator
Station Type Date Time Source
LIPE METAR 2020/07/10 23:50 UTC NOAA

LIPE 102350Z AUTO 25006KT 9999 NCD 24/18 Q1013


Station Type Date Time Source
LIPE Decoded METAR 2020/07/10 23:50 UTC NOAA

Bologna / Borgo Panigale, Italy (LIPE) 44-32N 011-18E 49M
Jul 10, 2020 - 07:50 PM EDT / 2020.07.10 2350 UTC
Wind: from the WSW (250 degrees) at 7 MPH (6 KT):0
Visibility: greater than 7 mile(s):0
Temperature: 75 F (24 C)
Dew Point: 64 F (18 C)
Relative Humidity: 69%
Pressure (altimeter): 29.91 in. Hg (1013 hPa)
ob: LIPE 102350Z AUTO 25006KT 9999 NCD 24/18 Q1013
cycle: 0

Station Type Date Time Source
LIPE TAF 2020/07/10 18:22 UTC NOAA

TAF LIPE 101700Z 1018/1118 VRB05KT CAVOK
TEMPO 1115/1118 TSRA

Example: see airport list